MG0289 weather

Mina Brucutu Heliport
São Gonçalo Do Rio Abaixo, Minas Gerais, Brazil

Public forecast

Using degrees Celsius for public forecast. Weather courtesy of forecast.io.

METAR (pilot weather report)

Closest report is Lagoa Santa Airport, 30.9 nm (57.3 km) WNW. Retrieved 2019/09/23 10:00 UTC (17 seconds ago):

SBLS 231000Z 13011KT 9999 BKN030 SCT090 20/14 Q1023

TAF (pilot weather forecast)

Forecast is more than 12 hours old.

Closest forecast is Pampulha - Carlos Drummond de Andrade Airport, 31.4 nm (58.1 km) W. Retrieved 2012/03/26 18:12 UTC (7 years ago):

TAF SBBH 261639Z 2618/2706 09005KT 9999 SCT030 TX28/2618Z TN20/2705Z PROB30 2619/2624 8000 TSRA BKN035 FEW045CB RMK PGG